This is the latest recevied weather packets stored in our database for station/object IK2YOU-3. If no packets are shown the sender has not sent any weather packets the latest 10 day(s).
| Time | Temp. | Humidity | Pressure | Rain* | Wind** | Luminosity | Snow |
|---|---|---|---|---|---|---|---|
| 1777495435 | 17.78° C | 62% | 1015.3 hPa | 0 mm | - | 0 W/m² | - |
| 1777494835 | 18.33° C | 62% | 1015.2 hPa | 0 mm | - | 0 W/m² | - |
| 1777494235 | 18.33° C | 62% | 1015.1 hPa | 0 mm | - | 0 W/m² | - |
| 1777493636 | 18.33° C | 61% | 1015.1 hPa | 0 mm | - | 0 W/m² | - |
| 1777493037 | 18.33° C | 62% | 1015 hPa | 0 mm | - | 0 W/m² | - |
| 1777492435 | 18.33° C | 64% | 1014.8 hPa | 0 mm | - | 0 W/m² | - |
| 1777491835 | 18.33° C | 66% | 1014.6 hPa | 0 mm | - | 0 W/m² | - |
| 1777491239 | 18.33° C | 66% | 1014.5 hPa | 0 mm | - | 0 W/m² | - |
| 1777490632 | 18.33° C | 66% | 1014.3 hPa | 0 mm | - | 0 W/m² | - |
| 1777490033 | 18.33° C | 66% | 1014.1 hPa | 0 mm | - | 0 W/m² | - |
| 1777489432 | 18.89° C | 66% | 1014 hPa | 0 mm | - | 0 W/m² | - |
| 1777488833 | 18.89° C | 65% | 1013.9 hPa | 0 mm | - | 0 W/m² | - |
| 1777488233 | 18.89° C | 66% | 1013.7 hPa | 0 mm | - | 0 W/m² | - |
| 1777487762 | 19.44° C | 66% | 1013.5 hPa | 0 mm | - | 0 W/m² | - |
| 1777487033 | 19.44° C | 65% | 1013.4 hPa | 0 mm | - | 0 W/m² | - |
| 1777486434 | 19.44° C | 67% | 1013.2 hPa | 0 mm | - | 0 W/m² | - |
| 1777485833 | 20° C | 67% | 1013.1 hPa | 0 mm | - | 4 W/m² | - |
| 1777485232 | 20° C | 68% | 1013 hPa | 0 mm | - | 9 W/m² | - |
| 1777484761 | 20° C | 68% | 1012.8 hPa | 0 mm | - | 11 W/m² | - |
| 1777484157 | 20° C | 66% | 1012.7 hPa | 0 mm | - | 19 W/m² | - |
| 1777483431 | 20.56° C | 65% | 1012.6 hPa | 0 mm | - | 29 W/m² | - |
| 1777482831 | 20.56° C | 64% | 1012.5 hPa | 0 mm | - | 34 W/m² | - |
| 1777482360 | 21.11° C | 63% | 1012.4 hPa | 0 mm | - | 46 W/m² | - |
| 1777481630 | 21.67° C | 63% | 1012.4 hPa | 0 mm | - | 55 W/m² | - |
| 1777481031 | 21.67° C | 62% | 1012.5 hPa | 0 mm | - | 77 W/m² | - |
* Rain latest hour (hover to see other rain measurements)
** Current wind speed in m/s (hover to see current wind gust speed)